• Join FlightAware (Why Join?)
  • Login
  • US Flag 
11:57PM EST


 

Airport Tracker/Info


-or-


 

Live Flight TrackerFlight Track Log ✈ N654JR ✈ 03-Mar-2014 ✈ KADS - KICT

Flight Track Log - Related Links

Times and Time Zones

All times are in EST time to prevent confusion due to time zone crossing. See the N654JR flight status page for this flight to view local times or setup timezone preferences in your user account.

Time Position Orientation Groundspeed Altitude Reporting Facility
EST Latitude Longitude Course Direction KTS MPH feet Rate Location/Type
05:08PM 32.9667 -96.8333 337° Northwest 87 100 900  Level Dallas / Fort Worth TRACON
05:10PM 33.0000 -96.8500 337° Northwest 116 133 1,900 960 Climbing Dallas / Fort Worth TRACON
05:11PM 33.0333 -96.8667 337° Northwest 116 133 3,100 960 Climbing Dallas / Fort Worth TRACON
05:12PM 33.0667 -96.8667 360° North 118 136 4,000 540 Climbing Dallas / Fort Worth TRACON
05:14PM 33.1547 -96.8897 348° North 143 165 4,900 480 Climbing Fort Worth Center
05:15PM 33.1881 -96.8961 351° North 128 147 5,700 720 Climbing Fort Worth Center
05:16PM 33.2253 -96.9017 353° North 127 146 6,500 720 Climbing Fort Worth Center
05:17PM 33.2606 -96.9067 353° North 127 146 7,300 720 Climbing Fort Worth Center
05:18PM 33.2972 -96.9094 356° North 127 146 8,000 360 Climbing Fort Worth Center
05:19PM 33.3442 -96.9111 358° North 153 176 8,100 540 Climbing Fort Worth Center
05:20PM 33.3822 -96.9117 359° North 138 159 9,200 840 Climbing Fort Worth Center
05:21PM 33.4142 -96.9139 357° North 117 135 9,900 720 Climbing Fort Worth Center
05:22PM 33.4544 -96.9161 357° North 133 153 10,800 900 Climbing Fort Worth Center
05:23PM 33.4847 -96.9172 358° North 115 132 11,800 960 Climbing Fort Worth Center
05:24PM 33.5197 -96.9189 358° North 118 136 12,800 900 Climbing Fort Worth Center
05:25PM 33.5519 -96.9206 358° North 119 137 13,700 900 Climbing Fort Worth Center
05:26PM 33.5858 -96.9217 358° North 116 133 14,700 840 Climbing Fort Worth Center
05:27PM 33.6178 -96.9233 358° North 115 132 15,500 840 Climbing Fort Worth Center
05:28PM 33.6547 -96.9250 358° North 121 139 16,500 840 Climbing Fort Worth Center
05:29PM 33.6900 -96.9261 358° North 126 145 17,300 600 Climbing Fort Worth Center
05:30PM 33.7294 -96.9283 357° North 129 148 17,800 600 Climbing Fort Worth Center
05:31PM 33.7658 -96.9297 358° North 131 151 18,600 720 Climbing Fort Worth Center
05:33PM 33.8036 -96.9308 359° North 132 152 19,400 720 Climbing Fort Worth Center
05:34PM 33.8389 -96.9344 355° North 136 157 20,100 780 Climbing Fort Worth Center
05:35PM 33.8856 -96.9372 357° North 138 159 21,100 720 Climbing Fort Worth Center
05:36PM 33.9258 -96.9378 359° North 143 165 21,700 600 Climbing Fort Worth Center
05:37PM 33.9669 -96.9400 357° North 147 169 22,400 600 Climbing Fort Worth Center
05:38PM 34.0086 -96.9417 358° North 148 170 23,000 600 Climbing Fort Worth Center
05:39PM 34.0531 -96.9431 359° North 155 178 23,700 480 Climbing Fort Worth Center
05:40PM 34.1025 -96.9444 359° North 163 188 24,000 120 Climbing Fort Worth Center
05:41PM 34.1583 -96.9461 359° North 194 223 24,000  Level Fort Worth Center
05:42PM 34.2172 -96.9492 358° North 209 241 24,000  Level Fort Worth Center
05:43PM 34.2878 -96.9525 358° North 210 242 24,000  Level Fort Worth Center
05:44PM 34.3464 -96.9553 358° North 210 242 24,000  Level Fort Worth Center
05:45PM 34.4047 -96.9572 358° North 210 242 24,000  Level Fort Worth Center
05:46PM 34.4631 -96.9603 358° North 210 242 24,000  Level Fort Worth Center
05:47PM 34.5206 -96.9625 358° North 209 241 24,000  Level Fort Worth Center
05:48PM 34.5778 -96.9658 357° North 209 241 24,000  Level Fort Worth Center
05:49PM 34.6461 -96.9706 357° North 208 239 24,000  Level Fort Worth Center
05:50PM 34.7031 -96.9725 358° North 208 239 24,000  Level Fort Worth Center
05:51PM 34.7594 -96.9742 359° North 205 236 24,000  Level Fort Worth Center
05:52PM 34.8169 -96.9769 358° North 205 236 24,000  Level Fort Worth Center
05:53PM 34.8731 -96.9822 356° North 205 236 24,000  Level Fort Worth Center
05:54PM 34.9419 -96.9850 358° North 205 236 24,000  Level Fort Worth Center
05:55PM 35.0003 -96.9883 357° North 206 237 24,000  Level Fort Worth Center
05:56PM 35.0608 -96.9889 360° North 210 242 24,000  Level Fort Worth Center
05:57PM 35.1203 -96.9922 357° North 212 244 24,000  Level Fort Worth Center
05:58PM 35.1783 -96.9964 357° North 212 244 24,000  Level Fort Worth Center
05:59PM 35.2378 -96.9989 358° North 212 244 24,000  Level Fort Worth Center
06:00PM 35.3083 -97.0017 358° North 213 245 24,000  Level Fort Worth Center
06:01PM 35.3672 -97.0039 358° North 213 245 24,000  Level Fort Worth Center
06:03PM 35.4256 -97.0067 358° North 212 244 24,000  Level Fort Worth Center
06:04PM 35.4842 -97.0094 358° North 212 244 24,000  Level Fort Worth Center
06:05PM 35.5431 -97.0122 358° North 212 244 24,000  Level Fort Worth Center
06:06PM 35.6128 -97.0153 358° North 212 244 24,000 -300 Level Fort Worth Center
06:07PM 35.6711 -97.0192 357° North 211 243 23,500 -660 Descending Fort Worth Center
06:08PM 35.7367 -97.0217 358° North 231 266 22,700 -840 Descending Fort Worth Center
06:09PM 35.8031 -97.0256 357° North 236 272 21,800 -780 Descending Fort Worth Center
06:10PM 35.8672 -97.0289 358° North 236 272 21,200 -720 Descending Fort Worth Center
06:11PM 35.9419 -97.0322 358° North 227 261 20,400 -780 Descending Fort Worth Center
06:12PM 36.0028 -97.0347 358° North 221 254 19,700 -720 Descending Fort Worth Center
06:13PM 36.0639 -97.0378 358° North 221 254 19,000 -660 Descending Fort Worth Center
06:14PM 36.1253 -97.0406 358° North 221 254 18,400 -660 Descending Fort Worth Center
06:15PM 36.1850 -97.0428 358° North 218 251 17,700 -480 Descending Fort Worth Center
06:16PM 36.2439 -97.0464 357° North 214 246 17,500 -540 Descending Fort Worth Center
06:17PM 36.3139 -97.0508 357° North 211 243 16,700 -720 Descending Fort Worth Center
06:18PM 36.3708 -97.0544 357° North 209 241 16,100 -600 Descending Fort Worth Center
06:20PM 36.4469 -97.0561 359° North 201 231 15,300 -600 Descending Kansas City Center
06:21PM 36.5008 -97.0589 358° North 199 229 14,700 -660 Descending Kansas City Center
06:22PM 36.5628 -97.0606 359° North 190 219 14,000 -600 Descending Kansas City Center
06:23PM 36.6167 -97.0639 357° North 189 217 13,500 -540 Descending Kansas City Center
06:24PM 36.6667 -97.0742 351° North 184 212 12,900 -540 Descending Kansas City Center
06:25PM 36.7119 -97.0933 341° North 184 212 12,400 -540 Descending Kansas City Center
06:26PM 36.7592 -97.1092 345° North 180 207 11,900 -600 Descending Kansas City Center
06:27PM 36.8069 -97.1258 344° North 180 207 11,200 -840 Descending Kansas City Center
06:28PM 36.8592 -97.1444 344° North 180 207 10,300 -840 Descending Kansas City Center
06:29PM 36.9083 -97.1625 344° North 181 208 9,500 -780 Descending Kansas City Center
06:30PM 36.9569 -97.1808 343° North 181 208 8,700 -960 Descending Kansas City Center
06:30PM 36.9714 -97.1872 341° North 186 214 8,400 -900 Descending Kansas City Center
06:31PM 37.0164 -97.2019 345° North 183 211 7,800 -900 Descending Kansas City Center
06:31PM 37.0256 -97.2047 346° North 186 214 7,500 -780 Descending Kansas City Center
06:32PM 37.0664 -97.2192 344° North 183 211 7,000 -840 Descending Kansas City Center
06:32PM 37.0742 -97.2261 325° Northwest 187 215 6,700 -600 Descending Kansas City Center
06:33PM 37.1283 -97.2439 345° North 184 212 6,300 -360 Descending Kansas City Center
06:34PM 37.1639 -97.2542 347° North 183 211 6,100 -480 Descending Kansas City Center
06:34PM 37.1722 -97.2606 329° Northwest 179 206 5,900 -420 Descending Kansas City Center
06:35PM 37.2119 -97.2722 347° North 182 209 5,700 -420 Descending Kansas City Center
06:35PM 37.2200 -97.2769 335° Northwest 180 207 5,500 -420 Descending Kansas City Center
06:36PM 37.2606 -97.2900 346° North 182 209 5,300 -420 Descending Kansas City Center
06:36PM 37.2681 -97.2958 328° Northwest 184 212 5,100 -720 Descending Kansas City Center
06:37PM 37.3183 -97.3142 344° North 187 215 4,600 -480 Descending Kansas City Center
06:38PM 37.3700 -97.3297 347° North 183 211 4,200 -540 Descending Kansas City Center
06:38PM 37.3683 -97.3303 195° South 186 214 4,100 -240 Descending Kansas City Center
06:39PM 37.4217 -97.3403 352° North 180 207 4,000 -60 Descending Kansas City Center
06:40PM 37.4686 -97.3461 354° North 170 196 4,000 60 Level Kansas City Center
06:40PM 37.4678 -97.3433 111° Southeast 178 205 4,100  Climbing Kansas City Center
06:41PM 37.5172 -97.3492 355° North 161 185 4,000  Descending Kansas City Center
06:42PM 37.5589 -97.3486 North 164 189 4,100 -240 Climbing Kansas City Center
06:42PM 37.5617 -97.3528 310° West 159 183 3,800 -840 Descending Kansas City Center
06:43PM 37.6003 -97.3719 339° North 161 185 3,300 -840 Descending Kansas City Center
06:43PM 37.6061 -97.3775 323° Northwest 177 204 3,000 -720 Descending Kansas City Center
06:44PM 37.6550 -97.3717 North 164 189 2,600 -600 Descending Kansas City Center
06:45PM 37.6775 -97.3983 317° Northwest 107 123 1,900 -720 Descending Kansas City Center
06:45PM 37.6778 -97.3964 80° East 134 154 1,900 -480 Level Kansas City Center
06:46PM 37.6625 -97.4164 226° Southwest 67 77 1,400 -480 Descending Kansas City Center